Hlavní strana
METAR-TAF:

METAR-TAF

Letiště :

Moroni, Komory

zeměpisná šířka: 11-32S, zeměpisná délka: 043-16E, výška: 29 m

Aktuální stav počasí

Zpráva byla vytvořena před 3 hodinami a 29 minutami, v 18:00 UTC
Jihojihozápadní vítr 5 kt
Teplota 26°C
Vlhkost vzduchu 74%
Tlak 1017 hPa
Viditelnost 10 km a více
Skoro jasno ve výšce 2000 ft
Oblačno až skoro zataženo ve výšce 6000 ft

METAR: FMCH 181800Z 20005KT 9999 FEW020 BKN060 26/21 Q1017 NOSIG

Čas: 00:29 (21:29 UTC)

Předpověď počasí

Zpráva byla vytvořena před 4 hodinami a 29 minutami, v 17:00 UTC
Předpověď platná od 18 v 18 UTC do 19 v 24 UTC
Jižní vítr 4 kt
Viditelnost 10 km a více
Skoro jasno ve výšce 2000 ft
Polojasno ve výšce 3000 ft
Změna
od 19 v 05 UTC do 19 v 07 UTC
Východojihovýchodní vítr 10 kt
Změna
od 19 v 10 UTC do 19 v 12 UTC
Západojihozápadní vítr 5 kt

TAF: FMCH 181700Z 1818/1924 19004KT 9999 FEW020 SCT030 BECMG 1905/1907 12010KT BECMG 1910/1912 25005KT

Stav a předpovědi počasí z více než 4 000 letišť (zprávy METAR a TAF).

Červené a žluté tečky na mapě představují dostupné meteorologické stanice.

Když kurzor umístíte na tečku, zobrazí se název stanice.

Pak kliknutím zobrazíte stav a předpověď počasí.

Chcete-li změnit mapu, kliknutím na zelené tlačítko se znaménkem +mapu přiblížíte, kliknutím na zelené tlačítko se znaménkem – mapu oddálíte a kliknutím na zelené šipky přejdete na sousední mapy.


METAR-TAF: